sensor_id;sensor_type;location;lat;lon;timestamp;pressure;altitude;pressure_sealevel;temperature;humidity
12785;BME280;6456;42.680;23.260;2023-02-14T00:01:47;96045.75;;;3.25;78.20
12785;BME280;6456;42.680;23.260;2023-02-14T00:04:16;96091.28;;;3.50;78.32
12785;BME280;6456;42.680;23.260;2023-02-14T00:06:44;96065.22;;;3.31;78.55
12785;BME280;6456;42.680;23.260;2023-02-14T00:09:15;96083.88;;;3.45;78.54
12785;BME280;6456;42.680;23.260;2023-02-14T00:11:43;96087.16;;;3.47;78.49
12785;BME280;6456;42.680;23.260;2023-02-14T00:14:11;96075.63;;;3.40;78.79
12785;BME280;6456;42.680;23.260;2023-02-14T00:16:57;96093.44;;;3.45;79.01
12785;BME280;6456;42.680;23.260;2023-02-14T00:19:24;96092.06;;;3.41;79.29
12785;BME280;6456;42.680;23.260;2023-02-14T00:21:52;96083.03;;;3.35;79.23
12785;BME280;6456;42.680;23.260;2023-02-14T00:24:21;96092.75;;;3.43;79.60
12785;BME280;6456;42.680;23.260;2023-02-14T00:26:48;96092.19;;;3.39;79.89
12785;BME280;6456;42.680;23.260;2023-02-14T00:29:17;96093.97;;;3.48;80.47
12785;BME280;6456;42.680;23.260;2023-02-14T00:31:44;96084.13;;;3.42;80.53
12785;BME280;6456;42.680;23.260;2023-02-14T00:34:13;96072.06;;;3.41;80.15
12785;BME280;6456;42.680;23.260;2023-02-14T00:36:40;96078.94;;;3.52;80.45
12785;BME280;6456;42.680;23.260;2023-02-14T00:39:09;96092.94;;;3.60;80.41
12785;BME280;6456;42.680;23.260;2023-02-14T00:41:36;96069.22;;;3.54;80.28
12785;BME280;6456;42.680;23.260;2023-02-14T00:44:03;96060.06;;;3.59;80.21
12785;BME280;6456;42.680;23.260;2023-02-14T00:46:31;96090.19;;;3.71;80.01
12785;BME280;6456;42.680;23.260;2023-02-14T00:48:58;96083.38;;;3.70;79.84
12785;BME280;6456;42.680;23.260;2023-02-14T00:51:26;96087.75;;;3.70;79.93
12785;BME280;6456;42.680;23.260;2023-02-14T00:53:53;96070.19;;;3.62;79.80
12785;BME280;6456;42.680;23.260;2023-02-14T00:56:20;96080.06;;;3.68;79.89
12785;BME280;6456;42.680;23.260;2023-02-14T00:58:48;96007.66;;;3.24;80.10
12785;BME280;6456;42.680;23.260;2023-02-14T01:01:15;96036.47;;;3.51;80.00
12785;BME280;6456;42.680;23.260;2023-02-14T01:03:42;96062.91;;;3.66;80.09
12785;BME280;6456;42.680;23.260;2023-02-14T01:06:09;96068.00;;;3.67;80.18
12785;BME280;6456;42.680;23.260;2023-02-14T01:08:37;96065.94;;;3.71;79.83
12785;BME280;6456;42.680;23.260;2023-02-14T01:11:08;96066.09;;;3.69;79.50
12785;BME280;6456;42.680;23.260;2023-02-14T01:13:35;96066.91;;;3.70;79.89
12785;BME280;6456;42.680;23.260;2023-02-14T01:16:05;96045.13;;;3.61;79.50
12785;BME280;6456;42.680;23.260;2023-02-14T01:18:33;96043.19;;;3.63;79.41
12785;BME280;6456;42.680;23.260;2023-02-14T01:21:12;96062.53;;;3.70;79.70
12785;BME280;6456;42.680;23.260;2023-02-14T01:23:41;96054.31;;;3.75;79.72
12785;BME280;6456;42.680;23.260;2023-02-14T01:26:08;96052.94;;;3.71;79.34
12785;BME280;6456;42.680;23.260;2023-02-14T01:28:35;96015.38;;;3.54;79.58
12785;BME280;6456;42.680;23.260;2023-02-14T01:31:10;96035.38;;;3.63;79.60
12785;BME280;6456;42.680;23.260;2023-02-14T01:33:38;96036.78;;;3.67;79.42
12785;BME280;6456;42.680;23.260;2023-02-14T01:36:06;96042.81;;;3.68;79.65
12785;BME280;6456;42.680;23.260;2023-02-14T01:38:34;96050.88;;;3.65;79.79
12785;BME280;6456;42.680;23.260;2023-02-14T01:41:02;96032.94;;;3.71;79.21
12785;BME280;6456;42.680;23.260;2023-02-14T01:43:29;96013.47;;;3.66;79.33
12785;BME280;6456;42.680;23.260;2023-02-14T01:45:56;96014.84;;;3.60;78.75
12785;BME280;6456;42.680;23.260;2023-02-14T01:48:23;96003.88;;;3.66;78.37
12785;BME280;6456;42.680;23.260;2023-02-14T01:50:51;95990.19;;;3.55;78.54
12785;BME280;6456;42.680;23.260;2023-02-14T01:53:23;96019.22;;;3.79;78.78
12785;BME280;6456;42.680;23.260;2023-02-14T01:55:56;96012.09;;;3.81;80.29
12785;BME280;6456;42.680;23.260;2023-02-14T01:58:28;96021.84;;;3.79;78.53
12785;BME280;6456;42.680;23.260;2023-02-14T02:01:00;95990.03;;;3.66;78.51
12785;BME280;6456;42.680;23.260;2023-02-14T02:03:31;96016.50;;;3.80;78.17
12785;BME280;6456;42.680;23.260;2023-02-14T02:06:06;95991.69;;;3.67;78.66
12785;BME280;6456;42.680;23.260;2023-02-14T02:08:39;96014.03;;;3.79;78.30
12785;BME280;6456;42.680;23.260;2023-02-14T02:11:07;96012.25;;;3.79;78.18
12785;BME280;6456;42.680;23.260;2023-02-14T02:13:35;96013.19;;;3.78;78.37
12785;BME280;6456;42.680;23.260;2023-02-14T02:16:18;96010.59;;;3.78;78.31
12785;BME280;6456;42.680;23.260;2023-02-14T02:19:02;95997.59;;;3.69;78.46
12785;BME280;6456;42.680;23.260;2023-02-14T02:24:47;96009.91;;;3.76;78.34
12785;BME280;6456;42.680;23.260;2023-02-14T02:27:24;95997.72;;;3.67;78.24
12785;BME280;6456;42.680;23.260;2023-02-14T02:30:22;95997.88;;;3.75;78.24
12785;BME280;6456;42.680;23.260;2023-02-14T02:36:31;95986.50;;;3.67;78.44
12785;BME280;6456;42.680;23.260;2023-02-14T02:39:15;95956.47;;;3.53;78.57
12785;BME280;6456;42.680;23.260;2023-02-14T02:41:51;95973.06;;;3.71;78.41
12785;BME280;6456;42.680;23.260;2023-02-14T02:44:28;95976.91;;;3.67;78.16
12785;BME280;6456;42.680;23.260;2023-02-14T02:47:03;95960.88;;;3.62;78.66
12785;BME280;6456;42.680;23.260;2023-02-14T02:49:40;95972.91;;;3.63;78.46
12785;BME280;6456;42.680;23.260;2023-02-14T02:52:36;95983.88;;;3.57;78.65
12785;BME280;6456;42.680;23.260;2023-02-14T02:55:28;95971.81;;;3.56;78.64
12785;BME280;6456;42.680;23.260;2023-02-14T02:58:19;95983.88;;;3.48;78.91
12785;BME280;6456;42.680;23.260;2023-02-14T03:00:48;95976.34;;;3.54;78.97
12785;BME280;6456;42.680;23.260;2023-02-14T03:03:17;95981.81;;;3.51;79.14
12785;BME280;6456;42.680;23.260;2023-02-14T03:06:02;95968.53;;;3.45;79.52
12785;BME280;6456;42.680;23.260;2023-02-14T03:08:31;95958.66;;;3.29;79.88
12785;BME280;6456;42.680;23.260;2023-02-14T03:10:58;95977.19;;;3.45;79.96
12785;BME280;6456;42.680;23.260;2023-02-14T03:13:44;95984.16;;;3.45;80.01
12785;BME280;6456;42.680;23.260;2023-02-14T03:16:24;95943.06;;;3.19;79.74
12785;BME280;6456;42.680;23.260;2023-02-14T03:21:53;95969.63;;;3.42;79.28
12785;BME280;6456;42.680;23.260;2023-02-14T03:24:27;95966.47;;;3.48;79.05
12785;BME280;6456;42.680;23.260;2023-02-14T03:27:03;95927.72;;;3.26;79.26
12785;BME280;6456;42.680;23.260;2023-02-14T03:29:40;95937.84;;;3.39;79.03
12785;BME280;6456;42.680;23.260;2023-02-14T03:32:13;95934.03;;;3.43;79.36
12785;BME280;6456;42.680;23.260;2023-02-14T03:34:49;95944.28;;;3.44;79.18
12785;BME280;6456;42.680;23.260;2023-02-14T03:37:21;95950.19;;;3.46;78.92
12785;BME280;6456;42.680;23.260;2023-02-14T03:39:56;95952.38;;;3.41;79.17
12785;BME280;6456;42.680;23.260;2023-02-14T03:42:28;95958.28;;;3.43;78.85
12785;BME280;6456;42.680;23.260;2023-02-14T03:44:59;95951.56;;;3.41;79.24
12785;BME280;6456;42.680;23.260;2023-02-14T03:47:30;95937.84;;;3.29;79.20
12785;BME280;6456;42.680;23.260;2023-02-14T03:50:04;95928.00;;;3.23;79.12
12785;BME280;6456;42.680;23.260;2023-02-14T03:52:33;95940.88;;;3.34;79.10
12785;BME280;6456;42.680;23.260;2023-02-14T03:55:04;95932.91;;;3.26;79.25
12785;BME280;6456;42.680;23.260;2023-02-14T03:57:36;95891.56;;;3.04;79.58
12785;BME280;6456;42.680;23.260;2023-02-14T04:00:07;95936.50;;;3.35;79.50
12785;BME280;6456;42.680;23.260;2023-02-14T04:02:37;95928.69;;;3.35;79.73
12785;BME280;6456;42.680;23.260;2023-02-14T04:05:11;95842.44;;;2.82;79.48
12785;BME280;6456;42.680;23.260;2023-02-14T04:07:45;95921.31;;;3.30;79.49
12785;BME280;6456;42.680;23.260;2023-02-14T04:10:14;95917.19;;;3.28;79.50
12785;BME280;6456;42.680;23.260;2023-02-14T04:12:41;95924.03;;;3.29;79.75
12785;BME280;6456;42.680;23.260;2023-02-14T04:15:08;95927.44;;;3.29;79.50
12785;BME280;6456;42.680;23.260;2023-02-14T04:17:35;95920.31;;;3.31;79.30
12785;BME280;6456;42.680;23.260;2023-02-14T04:20:20;95937.75;;;3.31;78.83
12785;BME280;6456;42.680;23.260;2023-02-14T04:22:47;95897.59;;;3.04;78.86
12785;BME280;6456;42.680;23.260;2023-02-14T04:25:17;95929.63;;;3.24;78.77
12785;BME280;6456;42.680;23.260;2023-02-14T04:27:45;95913.50;;;3.20;78.93
12785;BME280;6456;42.680;23.260;2023-02-14T04:30:14;95871.84;;;2.92;79.02
12785;BME280;6456;42.680;23.260;2023-02-14T04:32:42;95923.59;;;3.23;79.19
12785;BME280;6456;42.680;23.260;2023-02-14T04:35:10;95873.94;;;2.98;78.69
12785;BME280;6456;42.680;23.260;2023-02-14T04:37:37;95925.53;;;3.31;78.52
12785;BME280;6456;42.680;23.260;2023-02-14T04:40:05;95921.97;;;3.32;78.18
12785;BME280;6456;42.680;23.260;2023-02-14T04:42:33;95895.41;;;3.09;78.13
12785;BME280;6456;42.680;23.260;2023-02-14T04:45:00;95897.06;;;3.10;77.79
12785;BME280;6456;42.680;23.260;2023-02-14T04:47:27;95887.88;;;3.16;78.07
12785;BME280;6456;42.680;23.260;2023-02-14T04:49:54;95885.00;;;3.19;78.14
12785;BME280;6456;42.680;23.260;2023-02-14T04:52:21;95874.88;;;3.16;77.70
12785;BME280;6456;42.680;23.260;2023-02-14T04:54:47;95896.50;;;3.26;77.93
12785;BME280;6456;42.680;23.260;2023-02-14T04:57:14;95892.28;;;3.15;78.11
12785;BME280;6456;42.680;23.260;2023-02-14T04:59:42;95900.34;;;3.22;77.79
12785;BME280;6456;42.680;23.260;2023-02-14T05:02:09;95892.66;;;3.11;77.81
12785;BME280;6456;42.680;23.260;2023-02-14T05:04:36;95891.72;;;3.12;78.00
12785;BME280;6456;42.680;23.260;2023-02-14T05:07:03;95845.03;;;2.82;78.08
12785;BME280;6456;42.680;23.260;2023-02-14T05:09:30;95908.56;;;3.27;77.87
12785;BME280;6456;42.680;23.260;2023-02-14T05:11:57;95881.31;;;3.12;77.64
12785;BME280;6456;42.680;23.260;2023-02-14T05:14:23;95870.22;;;3.10;77.23
12785;BME280;6456;42.680;23.260;2023-02-14T05:16:52;95908.16;;;3.32;77.61
12785;BME280;6456;42.680;23.260;2023-02-14T05:19:18;95911.31;;;3.35;77.34
12785;BME280;6456;42.680;23.260;2023-02-14T05:21:46;95900.59;;;3.29;77.71
12785;BME280;6456;42.680;23.260;2023-02-14T05:24:13;95872.41;;;3.14;77.40
12785;BME280;6456;42.680;23.260;2023-02-14T05:26:40;95905.81;;;3.29;77.60
12785;BME280;6456;42.680;23.260;2023-02-14T05:29:07;95902.25;;;3.30;77.48
12785;BME280;6456;42.680;23.260;2023-02-14T05:31:35;95895.41;;;3.19;77.90
12785;BME280;6456;42.680;23.260;2023-02-14T05:34:03;95833.94;;;2.80;77.54
12785;BME280;6456;42.680;23.260;2023-02-14T05:36:30;95874.59;;;3.19;77.55
12785;BME280;6456;42.680;23.260;2023-02-14T05:38:56;95893.78;;;3.37;77.44
12785;BME280;6456;42.680;23.260;2023-02-14T05:41:23;95895.69;;;3.35;77.54
12785;BME280;6456;42.680;23.260;2023-02-14T05:43:50;95897.63;;;3.33;77.70
12785;BME280;6456;42.680;23.260;2023-02-14T05:46:17;95905.44;;;3.33;77.90
12785;BME280;6456;42.680;23.260;2023-02-14T05:48:44;95894.59;;;3.28;78.23
12785;BME280;6456;42.680;23.260;2023-02-14T05:51:12;95894.59;;;3.28;78.28
12785;BME280;6456;42.680;23.260;2023-02-14T05:53:39;95864.75;;;3.13;78.62
12785;BME280;6456;42.680;23.260;2023-02-14T05:56:06;95894.88;;;3.25;78.92
12785;BME280;6456;42.680;23.260;2023-02-14T05:58:33;95868.47;;;3.10;78.81
12785;BME280;6456;42.680;23.260;2023-02-14T06:01:00;95897.06;;;3.30;78.49
12785;BME280;6456;42.680;23.260;2023-02-14T06:03:27;95849.69;;;3.07;78.57
12785;BME280;6456;42.680;23.260;2023-02-14T06:05:54;95896.22;;;3.39;78.69
12785;BME280;6456;42.680;23.260;2023-02-14T06:08:22;95886.38;;;3.42;77.98
12785;BME280;6456;42.680;23.260;2023-02-14T06:10:49;95852.56;;;3.23;77.42
12785;BME280;6456;42.680;23.260;2023-02-14T06:13:16;95896.06;;;3.59;77.21
12785;BME280;6456;42.680;23.260;2023-02-14T06:15:43;95912.09;;;3.64;76.73
12785;BME280;6456;42.680;23.260;2023-02-14T06:18:10;95898.69;;;3.59;76.50
12785;BME280;6456;42.680;23.260;2023-02-14T06:20:36;95892.81;;;3.57;76.57
12785;BME280;6456;42.680;23.260;2023-02-14T06:23:03;95906.06;;;3.73;76.49
12785;BME280;6456;42.680;23.260;2023-02-14T06:25:32;95913.16;;;3.81;76.37
12785;BME280;6456;42.680;23.260;2023-02-14T06:27:59;95903.06;;;3.78;76.50
12785;BME280;6456;42.680;23.260;2023-02-14T06:30:26;95911.38;;;3.81;76.16
12785;BME280;6456;42.680;23.260;2023-02-14T06:32:53;95912.06;;;3.93;76.21
12785;BME280;6456;42.680;23.260;2023-02-14T06:35:20;95910.13;;;3.95;76.12
12785;BME280;6456;42.680;23.260;2023-02-14T06:37:46;95910.53;;;4.00;75.96
12785;BME280;6456;42.680;23.260;2023-02-14T06:40:13;95862.19;;;3.78;75.82
12785;BME280;6456;42.680;23.260;2023-02-14T06:42:41;95899.69;;;4.05;75.63
12785;BME280;6456;42.680;23.260;2023-02-14T06:45:09;95893.41;;;3.98;75.55
12785;BME280;6456;42.680;23.260;2023-02-14T06:47:36;95909.41;;;4.12;75.75
12785;BME280;6456;42.680;23.260;2023-02-14T06:50:03;95899.81;;;4.13;76.22
12785;BME280;6456;42.680;23.260;2023-02-14T06:52:30;95866.50;;;4.07;76.05
12785;BME280;6456;42.680;23.260;2023-02-14T06:54:57;95894.28;;;4.25;75.67
12785;BME280;6456;42.680;23.260;2023-02-14T06:57:24;95866.78;;;4.13;75.58
12785;BME280;6456;42.680;23.260;2023-02-14T06:59:52;95897.28;;;4.30;75.41
12785;BME280;6456;42.680;23.260;2023-02-14T07:02:20;95850.75;;;4.08;75.57
12785;BME280;6456;42.680;23.260;2023-02-14T07:04:47;95881.38;;;4.24;76.12
12785;BME280;6456;42.680;23.260;2023-02-14T07:07:14;95896.56;;;4.38;76.24
12785;BME280;6456;42.680;23.260;2023-02-14T07:09:41;95885.03;;;4.40;76.56
12785;BME280;6456;42.680;23.260;2023-02-14T07:12:08;95884.75;;;4.34;76.91
12785;BME280;6456;42.680;23.260;2023-02-14T07:14:34;95874.94;;;4.28;77.32
12785;BME280;6456;42.680;23.260;2023-02-14T07:17:03;95863.69;;;4.27;77.88
12785;BME280;6456;42.680;23.260;2023-02-14T07:19:30;95895.72;;;4.37;77.87
12785;BME280;6456;42.680;23.260;2023-02-14T07:21:57;95885.59;;;4.34;78.28
12785;BME280;6456;42.680;23.260;2023-02-14T07:24:23;95895.47;;;4.31;79.44
12785;BME280;6456;42.680;23.260;2023-02-14T07:26:50;95883.25;;;4.31;79.18
12785;BME280;6456;42.680;23.260;2023-02-14T07:29:17;95879.28;;;4.37;79.01
12785;BME280;6456;42.680;23.260;2023-02-14T07:31:44;95883.66;;;4.36;78.64
12785;BME280;6456;42.680;23.260;2023-02-14T07:34:12;95882.59;;;4.29;79.19
12785;BME280;6456;42.680;23.260;2023-02-14T07:36:39;95883.53;;;4.38;79.60
12785;BME280;6456;42.680;23.260;2023-02-14T07:39:06;95892.69;;;4.42;80.12
12785;BME280;6456;42.680;23.260;2023-02-14T07:41:33;95898.72;;;4.42;80.44
12785;BME280;6456;42.680;23.260;2023-02-14T07:43:59;95907.94;;;4.37;81.52
12785;BME280;6456;42.680;23.260;2023-02-14T07:46:26;95921.44;;;4.23;83.32
12785;BME280;6456;42.680;23.260;2023-02-14T07:48:53;95906.81;;;4.03;85.01
12785;BME280;6456;42.680;23.260;2023-02-14T07:51:21;95919.84;;;4.03;86.31
12785;BME280;6456;42.680;23.260;2023-02-14T07:53:48;95898.59;;;4.07;86.08
12785;BME280;6456;42.680;23.260;2023-02-14T07:56:15;95916.97;;;4.06;86.43
12785;BME280;6456;42.680;23.260;2023-02-14T07:58:41;95907.06;;;4.09;87.13
12785;BME280;6456;42.680;23.260;2023-02-14T08:01:08;95917.50;;;4.09;87.71
12785;BME280;6456;42.680;23.260;2023-02-14T08:03:35;95889.16;;;3.97;87.51
12785;BME280;6456;42.680;23.260;2023-02-14T08:06:03;95904.03;;;4.14;88.15
12785;BME280;6456;42.680;23.260;2023-02-14T08:08:31;95907.03;;;4.19;87.62
12785;BME280;6456;42.680;23.260;2023-02-14T08:10:58;95902.69;;;4.10;87.75
12785;BME280;6456;42.680;23.260;2023-02-14T08:13:27;95915.94;;;4.26;87.51
12785;BME280;6456;42.680;23.260;2023-02-14T08:15:54;95923.06;;;4.24;87.72
12785;BME280;6456;42.680;23.260;2023-02-14T08:18:35;95918.72;;;4.15;87.98
12785;BME280;6456;42.680;23.260;2023-02-14T08:21:04;95875.84;;;4.00;86.78
12785;BME280;6456;42.680;23.260;2023-02-14T08:23:33;95923.34;;;4.30;85.93
12785;BME280;6456;42.680;23.260;2023-02-14T08:26:00;95935.03;;;4.17;86.58
12785;BME280;6456;42.680;23.260;2023-02-14T08:28:27;95933.66;;;4.13;87.40
12785;BME280;6456;42.680;23.260;2023-02-14T08:30:54;95910.81;;;3.97;87.42
12785;BME280;6456;42.680;23.260;2023-02-14T08:33:21;95942.44;;;4.12;88.23
12785;BME280;6456;42.680;23.260;2023-02-14T08:35:49;95950.25;;;4.12;88.78
12785;BME280;6456;42.680;23.260;2023-02-14T08:38:16;95939.28;;;4.18;88.48
12785;BME280;6456;42.680;23.260;2023-02-14T08:40:44;95939.94;;;4.20;88.92
12785;BME280;6456;42.680;23.260;2023-02-14T08:43:12;95946.03;;;4.11;89.33
12785;BME280;6456;42.680;23.260;2023-02-14T08:45:39;95929.06;;;3.87;90.53
12785;BME280;6456;42.680;23.260;2023-02-14T08:48:08;95924.69;;;3.88;91.35
12785;BME280;6456;42.680;23.260;2023-02-14T08:50:36;95929.34;;;3.84;92.42
12785;BME280;6456;42.680;23.260;2023-02-14T08:53:05;95914.25;;;3.78;92.87
12785;BME280;6456;42.680;23.260;2023-02-14T08:55:33;95938.81;;;3.85;93.18
12785;BME280;6456;42.680;23.260;2023-02-14T08:58:01;95952.63;;;3.86;93.29
12785;BME280;6456;42.680;23.260;2023-02-14T09:00:28;95941.25;;;3.87;93.63
12785;BME280;6456;42.680;23.260;2023-02-14T09:02:55;95896.22;;;3.58;93.84
12785;BME280;6456;42.680;23.260;2023-02-14T09:05:22;95934.13;;;3.89;93.83
12785;BME280;6456;42.680;23.260;2023-02-14T09:07:49;95927.28;;;3.78;93.60
12785;BME280;6456;42.680;23.260;2023-02-14T09:10:15;95920.56;;;3.85;93.38
12785;BME280;6456;42.680;23.260;2023-02-14T09:12:46;95875.91;;;3.71;93.15
12785;BME280;6456;42.680;23.260;2023-02-14T09:15:14;95900.03;;;3.82;92.66
12785;BME280;6456;42.680;23.260;2023-02-14T09:17:41;95929.47;;;3.93;92.80
12785;BME280;6456;42.680;23.260;2023-02-14T09:20:10;95910.38;;;4.02;92.36
12785;BME280;6456;42.680;23.260;2023-02-14T09:22:37;95914.06;;;4.09;91.77
12785;BME280;6456;42.680;23.260;2023-02-14T09:25:04;95908.56;;;4.12;90.89
12785;BME280;6456;42.680;23.260;2023-02-14T09:27:31;95894.47;;;4.05;89.95
12785;BME280;6456;42.680;23.260;2023-02-14T09:29:58;95910.63;;;4.18;89.94
12785;BME280;6456;42.680;23.260;2023-02-14T09:32:26;95918.72;;;4.15;88.82
12785;BME280;6456;42.680;23.260;2023-02-14T09:34:53;95914.44;;;4.14;89.04
12785;BME280;6456;42.680;23.260;2023-02-14T09:37:20;95913.75;;;4.21;89.07
12785;BME280;6456;42.680;23.260;2023-02-14T09:39:47;95922.81;;;4.17;89.03
12785;BME280;6456;42.680;23.260;2023-02-14T09:42:25;95916.00;;;4.07;89.39
12785;BME280;6456;42.680;23.260;2023-02-14T09:45:02;95910.34;;;4.21;89.03
12785;BME280;6456;42.680;23.260;2023-02-14T09:47:35;95904.03;;;4.14;88.29
12785;BME280;6456;42.680;23.260;2023-02-14T09:50:10;95912.38;;;4.27;87.81
12785;BME280;6456;42.680;23.260;2023-02-14T09:52:40;95914.72;;;4.20;87.24
12785;BME280;6456;42.680;23.260;2023-02-14T09:55:12;95910.22;;;4.13;87.66
12785;BME280;6456;42.680;23.260;2023-02-14T09:57:45;95919.78;;;4.22;87.99
12785;BME280;6456;42.680;23.260;2023-02-14T10:00:19;95846.97;;;3.83;88.32
12785;BME280;6456;42.680;23.260;2023-02-14T10:02:56;95909.13;;;4.15;86.38
12785;BME280;6456;42.680;23.260;2023-02-14T10:05:29;95917.47;;;4.19;86.72
12785;BME280;6456;42.680;23.260;2023-02-14T10:08:05;95890.63;;;4.09;86.81
12785;BME280;6456;42.680;23.260;2023-02-14T10:10:39;95864.31;;;4.02;85.69
12785;BME280;6456;42.680;23.260;2023-02-14T10:13:13;95880.03;;;4.20;84.88
12785;BME280;6456;42.680;23.260;2023-02-14T10:15:45;95877.97;;;4.23;84.49
12785;BME280;6456;42.680;23.260;2023-02-14T10:18:19;95795.09;;;3.72;84.58
12785;BME280;6456;42.680;23.260;2023-02-14T10:20:51;95907.81;;;4.29;84.51
12785;BME280;6456;42.680;23.260;2023-02-14T10:23:25;95894.41;;;4.24;85.08
12785;BME280;6456;42.680;23.260;2023-02-14T10:25:59;95915.78;;;4.27;84.87
12785;BME280;6456;42.680;23.260;2023-02-14T10:28:31;95898.75;;;4.06;85.14
12785;BME280;6456;42.680;23.260;2023-02-14T10:31:13;95897.75;;;4.07;85.37
12785;BME280;6456;42.680;23.260;2023-02-14T10:33:50;95874.16;;;4.18;85.16
12785;BME280;6456;42.680;23.260;2023-02-14T10:36:25;95860.72;;;4.13;84.24
12785;BME280;6456;42.680;23.260;2023-02-14T10:39:01;95858.56;;;3.99;83.84
12785;BME280;6456;42.680;23.260;2023-02-14T10:41:34;95886.47;;;4.25;84.10
12785;BME280;6456;42.680;23.260;2023-02-14T10:44:21;95881.25;;;4.25;83.30
12785;BME280;6456;42.680;23.260;2023-02-14T10:46:57;95881.97;;;4.18;83.03
12785;BME280;6456;42.680;23.260;2023-02-14T10:49:37;95888.28;;;4.15;84.13
12785;BME280;6456;42.680;23.260;2023-02-14T10:52:15;95901.81;;;4.19;84.51
12785;BME280;6456;42.680;23.260;2023-02-14T10:54:45;95850.38;;;3.94;84.92
12785;BME280;6456;42.680;23.260;2023-02-14T10:57:19;95876.25;;;4.05;85.10
12785;BME280;6456;42.680;23.260;2023-02-14T10:59:51;95869.00;;;3.99;85.07
12785;BME280;6456;42.680;23.260;2023-02-14T11:02:21;95862.44;;;3.95;86.82
12785;BME280;6456;42.680;23.260;2023-02-14T11:04:51;95859.66;;;4.06;85.55
12785;BME280;6456;42.680;23.260;2023-02-14T11:07:20;95816.28;;;3.87;84.71
12785;BME280;6456;42.680;23.260;2023-02-14T11:09:47;95873.16;;;4.19;84.42
12785;BME280;6456;42.680;23.260;2023-02-14T11:12:32;95852.25;;;4.01;83.95
12785;BME280;6456;42.680;23.260;2023-02-14T11:15:23;95833.91;;;4.03;83.64
12785;BME280;6456;42.680;23.260;2023-02-14T11:18:08;95867.00;;;4.20;81.94
12785;BME280;6456;42.680;23.260;2023-02-14T11:20:36;95860.03;;;4.20;82.69
12785;BME280;6456;42.680;23.260;2023-02-14T11:23:17;95858.63;;;4.26;82.50
12785;BME280;6456;42.680;23.260;2023-02-14T11:25:49;95843.16;;;4.15;82.00
12785;BME280;6456;42.680;23.260;2023-02-14T11:28:18;95854.75;;;4.30;80.88
12785;BME280;6456;42.680;23.260;2023-02-14T11:30:46;95862.41;;;4.31;80.37
12785;BME280;6456;42.680;23.260;2023-02-14T11:33:26;95801.78;;;4.12;79.69
12785;BME280;6456;42.680;23.260;2023-02-14T11:35:56;95887.66;;;4.31;79.55
12785;BME280;6456;42.680;23.260;2023-02-14T11:38:30;95813.25;;;4.19;79.06
12785;BME280;6456;42.680;23.260;2023-02-14T11:40:59;95847.84;;;4.38;78.66
12785;BME280;6456;42.680;23.260;2023-02-14T11:43:31;95852.34;;;4.46;77.85
12785;BME280;6456;42.680;23.260;2023-02-14T11:46:13;95796.44;;;4.31;77.63
12785;BME280;6456;42.680;23.260;2023-02-14T11:48:57;95837.19;;;4.59;75.98
12785;BME280;6456;42.680;23.260;2023-02-14T11:51:29;95815.72;;;4.47;76.20
12785;BME280;6456;42.680;23.260;2023-02-14T11:53:58;95843.75;;;4.63;75.69
12785;BME280;6456;42.680;23.260;2023-02-14T11:56:44;95817.06;;;4.51;74.98
12785;BME280;6456;42.680;23.260;2023-02-14T11:59:27;95812.38;;;4.55;75.38
12785;BME280;6456;42.680;23.260;2023-02-14T12:01:55;95800.88;;;4.30;75.25
12785;BME280;6456;42.680;23.260;2023-02-14T12:04:30;95825.78;;;4.60;76.05
12785;BME280;6456;42.680;23.260;2023-02-14T12:07:14;95827.00;;;4.66;76.20
12785;BME280;6456;42.680;23.260;2023-02-14T12:09:42;95739.75;;;4.25;76.61
12785;BME280;6456;42.680;23.260;2023-02-14T12:12:18;95803.09;;;4.70;77.17
12785;BME280;6456;42.680;23.260;2023-02-14T12:14:48;95797.94;;;4.61;75.43
12785;BME280;6456;42.680;23.260;2023-02-14T12:17:24;95815.69;;;4.75;76.30
12785;BME280;6456;42.680;23.260;2023-02-14T12:19:59;95779.00;;;4.59;76.14
12785;BME280;6456;42.680;23.260;2023-02-14T12:22:33;95799.75;;;4.78;75.94
12785;BME280;6456;42.680;23.260;2023-02-14T12:25:09;95795.34;;;4.78;75.88
12785;BME280;6456;42.680;23.260;2023-02-14T12:27:44;95802.81;;;4.73;76.55
12785;BME280;6456;42.680;23.260;2023-02-14T12:30:15;95796.97;;;4.79;76.55
12785;BME280;6456;42.680;23.260;2023-02-14T12:32:46;95783.56;;;4.74;76.66
12785;BME280;6456;42.680;23.260;2023-02-14T12:35:15;95797.25;;;4.76;77.01
12785;BME280;6456;42.680;23.260;2023-02-14T12:37:57;95783.28;;;4.77;77.12
12785;BME280;6456;42.680;23.260;2023-02-14T12:40:36;95794.06;;;4.82;76.88
12785;BME280;6456;42.680;23.260;2023-02-14T12:43:40;95773.75;;;4.68;77.00
12785;BME280;6456;42.680;23.260;2023-02-14T12:46:32;95796.75;;;4.73;77.13
12785;BME280;6456;42.680;23.260;2023-02-14T12:49:20;95789.81;;;4.81;77.08
12785;BME280;6456;42.680;23.260;2023-02-14T12:51:58;95780.00;;;4.75;77.72
12785;BME280;6456;42.680;23.260;2023-02-14T12:54:40;95781.41;;;4.70;77.58
12785;BME280;6456;42.680;23.260;2023-02-14T12:57:20;95715.84;;;4.29;77.41
12785;BME280;6456;42.680;23.260;2023-02-14T12:59:58;95754.78;;;4.48;77.72
12785;BME280;6456;42.680;23.260;2023-02-14T13:02:55;95763.38;;;4.59;77.82
12785;BME280;6456;42.680;23.260;2023-02-14T13:05:33;95777.00;;;4.70;78.22
12785;BME280;6456;42.680;23.260;2023-02-14T13:08:19;95774.25;;;4.89;78.09
12785;BME280;6456;42.680;23.260;2023-02-14T13:10:54;95799.75;;;4.95;78.22
12785;BME280;6456;42.680;23.260;2023-02-14T13:13:32;95773.06;;;4.84;78.57
12785;BME280;6456;42.680;23.260;2023-02-14T13:16:10;95764.84;;;4.96;78.59
12785;BME280;6456;42.680;23.260;2023-02-14T13:18:48;95773.94;;;5.10;78.11
12785;BME280;6456;42.680;23.260;2023-02-14T13:21:22;95744.06;;;4.87;77.97
12785;BME280;6456;42.680;23.260;2023-02-14T13:23:53;95755.84;;;5.08;78.12
12785;BME280;6456;42.680;23.260;2023-02-14T13:26:27;95770.88;;;5.14;77.98
12785;BME280;6456;42.680;23.260;2023-02-14T13:28:57;95776.91;;;5.15;78.19
12785;BME280;6456;42.680;23.260;2023-02-14T13:31:27;95729.19;;;4.79;78.44
12785;BME280;6456;42.680;23.260;2023-02-14T13:33:57;95769.56;;;5.10;78.68
12785;BME280;6456;42.680;23.260;2023-02-14T13:36:27;95767.59;;;5.12;78.23
12785;BME280;6456;42.680;23.260;2023-02-14T13:38:55;95747.94;;;5.00;78.73
12785;BME280;6456;42.680;23.260;2023-02-14T13:41:25;95708.03;;;4.82;78.98